Zagreb — 9AA5910 — position and weather

sailwx.info

Track history (hours):
 
Tides and Currents Weather Stations Pressure Air Temp Water Temp Dewpoint Dewpoint Depression Visibility Wind Speed Wind Dir Waves Ship Positions

Zagreb

Last reported at 2016-Aug-25 02:34 UTC. Time now 2016-Aug-25 02:47 UTC.
Position N 59°56' E 028°38'.

Length 229 m; draft 6.9 m.

Type: Cargo ship. MMSI: 238249000.

Date/timePositionNaut miles runAvg speedWind from/ knotsBaromVisibWave heightAir tempDewpointWater temp
2016-Aug-25 02:34N 59°56' E 028°38'8 7.7
2016-Aug-25 01:33N 60°03' E 028°29'1312.8
2016-Aug-25 00:33N 60°08' E 028°06'1312.4
2016-Aug-24 23:33N 60°09' E 027°41'1413.1
2016-Aug-24 22:27N 60°02' E 027°16'1112.5
2016-Aug-24 21:33N 59°59' E 026°55'1313.3
2016-Aug-24 20:33N 59°58' E 026°28'4513.5
2016-Aug-24 17:14N 59°48' E 025°01'913.3
2016-Aug-24 16:33N 59°46' E 024°44'1413.1
2016-Aug-24 15:28N 59°42' E 024°16'1213.3
2016-Aug-24 14:33N 59°38' E 023°54'1413.7
2016-Aug-24 13:33N 59°34' E 023°28'1313.5
2016-Aug-24 12:33N 59°29' E 023°03'1813.5
2016-Aug-24 11:12N 59°23' E 022°29'30712.8
2016-Aug-23 11:11N 55°40' E 015°56'913.8
2016-Aug-23 10:30N 55°38' E 015°40'1313.8
2016-Aug-23 09:33N 55°34' E 015°18'1413.7
2016-Aug-23 08:33N 55°28' E 014°56'1313.3
2016-Aug-23 07:34N 55°22' E 014°36'1313.3
2016-Aug-23 06:33N 55°11' E 014°21'1313.5
2016-Aug-23 05:33N 55°10' E 013°58'1414.0
2016-Aug-23 04:33N 55°11' E 013°33'1414.1
2016-Aug-23 03:33N 55°11' E 013°09'1413.9
2016-Aug-23 02:33N 55°16' E 012°46'1111.1
2016-Aug-23 01:33N 55°26' E 012°39'1110.7
2016-Aug-23 00:33N 55°37' E 012°42'1211.7
2016-Aug-22 23:33N 55°49' E 012°42'1211.6
2016-Aug-22 22:33N 56°00' E 012°40'10 9.7
2016-Aug-22 21:33N 56°08' E 012°30'1313.3
2016-Aug-22 20:33N 56°15' E 012°09'1613.3
2016-Aug-22 19:20N 56°30' E 011°58'1113.5
2016-Aug-22 18:33N 56°40' E 011°54'1313.5
2016-Aug-22 17:33N 56°53' E 011°47'1413.3
2016-Aug-22 16:33N 57°06' E 011°38'1312.7
2016-Aug-22 15:33N 57°18' E 011°30'1312.6
2016-Aug-22 14:33N 57°29' E 011°21'1312.6
2016-Aug-22 13:33N 57°38' E 011°03'1313.4
2016-Aug-22 12:34N 57°47' E 010°45'1514.9
2016-Aug-22 11:32N 57°46' E 010°16'10214.1
2016-Aug-22 04:15N 57°43' E 007°04'913.3
2016-Aug-22 03:33N 57°43' E 006°47'29912.9
2016-Aug-21 04:24N 58°36' W 002°30'1011.7
2016-Aug-21 03:33N 58°37' W 002°49'8 8.4
2016-Aug-21 02:33N 58°42' W 003°03'9 8.9
2016-Aug-21 01:33N 58°43' W 003°19'1313.2
2016-Aug-21 00:33N 58°43' W 003°45'1414.2
2016-Aug-20 23:33N 58°43' W 004°12'1514.3
2016-Aug-20 22:32N 58°43' W 004°40'18911.8
2016-Aug-20 06:32N 55°51' W 007°04'1414.5
2016-Aug-20 05:33N 55°39' W 006°49'1615.8
2016-Aug-20 04:33N 55°30' W 006°26'1615.8
2016-Aug-20 03:34N 55°24' W 006°01'1918.4
2016-Aug-20 02:33N 55°08' W 005°44'1615.6
2016-Aug-20 01:34N 54°53' W 005°38'1111.1
2016-Aug-20 00:33N 54°42' W 005°44'7 7.3
2016-Aug-19 23:33N 54°37' W 005°54'1 0.6
2016-Aug-19 22:32N 54°37' W 005°54'0 0.0
2016-Aug-19 21:29N 54°37' W 005°54'0 0.0
2016-Aug-19 15:29N 54°37' W 005°54'0 0.0
2016-Aug-19 13:23N 54°37' W 005°54'0 0.0
2016-Aug-19 06:29N 54°37' W 005°54'0 0.0
2016-Aug-19 03:17N 54°37' W 005°54'0 0.0
2016-Aug-19 01:17N 54°37' W 005°54'0 0.0
2016-Aug-19 00:23N 54°37' W 005°54'0 0.0
2016-Aug-18 23:29N 54°37' W 005°54'0 0.0
2016-Aug-18 22:11N 54°37' W 005°54'0 0.0
2016-Aug-18 21:29N 54°37' W 005°54'0 0.0
2016-Aug-18 16:26N 54°37' W 005°54'0 0.0
2016-Aug-18 15:20N 54°37' W 005°54'0 0.0
2016-Aug-18 11:23N 54°37' W 005°54'0 0.0
2016-Aug-18 06:20N 54°37' W 005°54'0 0.0
2016-Aug-17 23:32N 54°37' W 005°54'0 0.0
2016-Aug-17 21:32N 54°37' W 005°54'0 0.0
2016-Aug-17 19:32N 54°37' W 005°54'0 0.0
2016-Aug-17 18:14N 54°37' W 005°54'0 0.0
2016-Aug-17 16:14N 54°37' W 005°54'0 0.0
2016-Aug-17 13:17N 54°37' W 005°54'0 0.0
2016-Aug-17 12:29N 54°37' W 005°54'0 0.0
2016-Aug-17 11:23N 54°37' W 005°54'0 0.0
2016-Aug-17 10:29N 54°37' W 005°54'0 0.0
2016-Aug-17 09:17N 54°37' W 005°54'0 0.0
2016-Aug-17 08:05N 54°37' W 005°54'0 0.0
2016-Aug-17 07:23N 54°37' W 005°54'0 0.0
2016-Aug-17 06:08N 54°37' W 005°54'0 0.0
2016-Aug-17 05:29N 54°37' W 005°54'0 0.0
2016-Aug-17 04:29N 54°37' W 005°54'0 0.0
2016-Aug-17 03:26N 54°37' W 005°54'0 0.0
2016-Aug-17 02:29N 54°37' W 005°54'0 0.0
2016-Aug-17 01:29N 54°37' W 005°54'0 0.0
2016-Aug-17 00:17N 54°37' W 005°54'0 0.0
2016-Aug-16 23:29N 54°37' W 005°54'0 0.0
2016-Aug-16 22:17N 54°37' W 005°54'0 0.0
2016-Aug-16 20:26N 54°37' W 005°54'0 0.0
2016-Aug-16 19:32N 54°37' W 005°54'0 0.0
2016-Aug-16 18:29N 54°37' W 005°54'0 0.0
2016-Aug-16 17:17N 54°37' W 005°54'0 0.0
2016-Aug-16 15:26N 54°37' W 005°54'0 0.0
2016-Aug-16 14:23N 54°37' W 005°54'0 0.0
2016-Aug-16 13:32N 54°37' W 005°54'0 0.0
2016-Aug-16 12:29N 54°37' W 005°54'0 0.0
2016-Aug-16 11:32N 54°37' W 005°54'0 0.0
2016-Aug-16 10:29N 54°37' W 005°54'0 0.0
2016-Aug-16 09:11N 54°37' W 005°54'0 0.0
2016-Aug-16 08:11N 54°37' W 005°54'0 0.0
2016-Aug-16 07:32N 54°37' W 005°54'0 0.0
2016-Aug-16 03:29N 54°37' W 005°54'0 0.0
2016-Aug-16 02:32N 54°37' W 005°54'0 0.0
2016-Aug-16 00:20N 54°37' W 005°54'0 0.0
2016-Aug-15 23:32N 54°37' W 005°54'0 0.2
2016-Aug-15 20:31N 54°37' W 005°54'6 6.7
2016-Aug-15 19:33N 54°42' W 005°46'7 6.8
2016-Aug-15 18:34N 54°46' W 005°37'7 7.2
2016-Aug-15 17:34N 54°54' W 005°38'1312.7
2016-Aug-15 16:34N 55°05' W 005°46'1312.7
2016-Aug-15 15:33N 55°16' W 005°59'1111.0
2016-Aug-15 14:33N 55°22' W 006°14'1110.8
2016-Aug-15 13:34N 55°27' W 006°31'1110.6
2016-Aug-15 12:33N 55°35' W 006°43'10 9.8
2016-Aug-15 11:33N 55°43' W 006°54'  
Track history (hours):
 
Tides and Currents Weather Stations Pressure Air Temp Water Temp Dewpoint Dewpoint Depression Visibility Wind Speed Wind Dir Waves Ship Positions

Zagreb

Last reported at 2016-Aug-25 02:34 UTC. Time now 2016-Aug-25 02:47 UTC.
Position N 59°56' E 028°38'.

Length 229 m; draft 6.9 m.

Type: Cargo ship. MMSI: 238249000.

Date/timePositionNaut miles runAvg speedWind from/ knotsBaromVisibWave heightAir tempDewpointWater temp
2016-Aug-25 02:34N 59°56' E 028°38'8 7.7
2016-Aug-25 01:33N 60°03' E 028°29'1312.8
2016-Aug-25 00:33N 60°08' E 028°06'1312.4
2016-Aug-24 23:33N 60°09' E 027°41'1413.1
2016-Aug-24 22:27N 60°02' E 027°16'1112.5
2016-Aug-24 21:33N 59°59' E 026°55'1313.3
2016-Aug-24 20:33N 59°58' E 026°28'4513.5
2016-Aug-24 17:14N 59°48' E 025°01'913.3
2016-Aug-24 16:33N 59°46' E 024°44'1413.1
2016-Aug-24 15:28N 59°42' E 024°16'1213.3
2016-Aug-24 14:33N 59°38' E 023°54'1413.7
2016-Aug-24 13:33N 59°34' E 023°28'1313.5
2016-Aug-24 12:33N 59°29' E 023°03'1813.5
2016-Aug-24 11:12N 59°23' E 022°29'30712.8
2016-Aug-23 11:11N 55°40' E 015°56'913.8
2016-Aug-23 10:30N 55°38' E 015°40'1313.8
2016-Aug-23 09:33N 55°34' E 015°18'1413.7
2016-Aug-23 08:33N 55°28' E 014°56'1313.3
2016-Aug-23 07:34N 55°22' E 014°36'1313.3
2016-Aug-23 06:33N 55°11' E 014°21'1313.5
2016-Aug-23 05:33N 55°10' E 013°58'1414.0
2016-Aug-23 04:33N 55°11' E 013°33'1414.1
2016-Aug-23 03:33N 55°11' E 013°09'1413.9
2016-Aug-23 02:33N 55°16' E 012°46'1111.1
2016-Aug-23 01:33N 55°26' E 012°39'1110.7
2016-Aug-23 00:33N 55°37' E 012°42'1211.7
2016-Aug-22 23:33N 55°49' E 012°42'1211.6
2016-Aug-22 22:33N 56°00' E 012°40'10 9.7
2016-Aug-22 21:33N 56°08' E 012°30'1313.3
2016-Aug-22 20:33N 56°15' E 012°09'1613.3
2016-Aug-22 19:20N 56°30' E 011°58'1113.5
2016-Aug-22 18:33N 56°40' E 011°54'1313.5
2016-Aug-22 17:33N 56°53' E 011°47'1413.3
2016-Aug-22 16:33N 57°06' E 011°38'1312.7
2016-Aug-22 15:33N 57°18' E 011°30'1312.6
2016-Aug-22 14:33N 57°29' E 011°21'1312.6
2016-Aug-22 13:33N 57°38' E 011°03'1313.4
2016-Aug-22 12:34N 57°47' E 010°45'1514.9
2016-Aug-22 11:32N 57°46' E 010°16'10214.1
2016-Aug-22 04:15N 57°43' E 007°04'913.3
2016-Aug-22 03:33N 57°43' E 006°47'29912.9
2016-Aug-21 04:24N 58°36' W 002°30'1011.7
2016-Aug-21 03:33N 58°37' W 002°49'8 8.4
2016-Aug-21 02:33N 58°42' W 003°03'9 8.9
2016-Aug-21 01:33N 58°43' W 003°19'1313.2
2016-Aug-21 00:33N 58°43' W 003°45'1414.2
2016-Aug-20 23:33N 58°43' W 004°12'1514.3
2016-Aug-20 22:32N 58°43' W 004°40'18911.8
2016-Aug-20 06:32N 55°51' W 007°04'1414.5
2016-Aug-20 05:33N 55°39' W 006°49'1615.8
2016-Aug-20 04:33N 55°30' W 006°26'1615.8
2016-Aug-20 03:34N 55°24' W 006°01'1918.4
2016-Aug-20 02:33N 55°08' W 005°44'1615.6
2016-Aug-20 01:34N 54°53' W 005°38'1111.1
2016-Aug-20 00:33N 54°42' W 005°44'7 7.3
2016-Aug-19 23:33N 54°37' W 005°54'1 0.6
2016-Aug-19 22:32N 54°37' W 005°54'0 0.0
2016-Aug-19 21:29N 54°37' W 005°54'0 0.0
2016-Aug-19 15:29N 54°37' W 005°54'0 0.0
2016-Aug-19 13:23N 54°37' W 005°54'0 0.0
2016-Aug-19 06:29N 54°37' W 005°54'0 0.0
2016-Aug-19 03:17N 54°37' W 005°54'0 0.0
2016-Aug-19 01:17N 54°37' W 005°54'0 0.0
2016-Aug-19 00:23N 54°37' W 005°54'0 0.0
2016-Aug-18 23:29N 54°37' W 005°54'0 0.0
2016-Aug-18 22:11N 54°37' W 005°54'0 0.0
2016-Aug-18 21:29N 54°37' W 005°54'0 0.0
2016-Aug-18 16:26N 54°37' W 005°54'0 0.0
2016-Aug-18 15:20N 54°37' W 005°54'0 0.0
2016-Aug-18 11:23N 54°37' W 005°54'0 0.0
2016-Aug-18 06:20N 54°37' W 005°54'0 0.0
2016-Aug-17 23:32N 54°37' W 005°54'0 0.0
2016-Aug-17 21:32N 54°37' W 005°54'0 0.0
2016-Aug-17 19:32N 54°37' W 005°54'0 0.0
2016-Aug-17 18:14N 54°37' W 005°54'0 0.0
2016-Aug-17 16:14N 54°37' W 005°54'0 0.0
2016-Aug-17 13:17N 54°37' W 005°54'0 0.0
2016-Aug-17 12:29N 54°37' W 005°54'0 0.0
2016-Aug-17 11:23N 54°37' W 005°54'0 0.0
2016-Aug-17 10:29N 54°37' W 005°54'0 0.0
2016-Aug-17 09:17N 54°37' W 005°54'0 0.0
2016-Aug-17 08:05N 54°37' W 005°54'0 0.0
2016-Aug-17 07:23N 54°37' W 005°54'0 0.0
2016-Aug-17 06:08N 54°37' W 005°54'0 0.0
2016-Aug-17 05:29N 54°37' W 005°54'0 0.0
2016-Aug-17 04:29N 54°37' W 005°54'0 0.0
2016-Aug-17 03:26N 54°37' W 005°54'0 0.0
2016-Aug-17 02:29N 54°37' W 005°54'0 0.0
2016-Aug-17 01:29N 54°37' W 005°54'0 0.0
2016-Aug-17 00:17N 54°37' W 005°54'0 0.0
2016-Aug-16 23:29N 54°37' W 005°54'0 0.0
2016-Aug-16 22:17N 54°37' W 005°54'0 0.0
2016-Aug-16 20:26N 54°37' W 005°54'0 0.0
2016-Aug-16 19:32N 54°37' W 005°54'0 0.0
2016-Aug-16 18:29N 54°37' W 005°54'0 0.0
2016-Aug-16 17:17N 54°37' W 005°54'0 0.0
2016-Aug-16 15:26N 54°37' W 005°54'0 0.0
2016-Aug-16 14:23N 54°37' W 005°54'0 0.0
2016-Aug-16 13:32N 54°37' W 005°54'0 0.0
2016-Aug-16 12:29N 54°37' W 005°54'0 0.0
2016-Aug-16 11:32N 54°37' W 005°54'0 0.0
2016-Aug-16 10:29N 54°37' W 005°54'0 0.0
2016-Aug-16 09:11N 54°37' W 005°54'0 0.0
2016-Aug-16 08:11N 54°37' W 005°54'0 0.0
2016-Aug-16 07:32N 54°37' W 005°54'0 0.0
2016-Aug-16 03:29N 54°37' W 005°54'0 0.0
2016-Aug-16 02:32N 54°37' W 005°54'0 0.0
2016-Aug-16 00:20N 54°37' W 005°54'0 0.0
2016-Aug-15 23:32N 54°37' W 005°54'0 0.2
2016-Aug-15 20:31N 54°37' W 005°54'6 6.7
2016-Aug-15 19:33N 54°42' W 005°46'7 6.8
2016-Aug-15 18:34N 54°46' W 005°37'7 7.2
2016-Aug-15 17:34N 54°54' W 005°38'1312.7
2016-Aug-15 16:34N 55°05' W 005°46'1312.7
2016-Aug-15 15:33N 55°16' W 005°59'1111.0
2016-Aug-15 14:33N 55°22' W 006°14'1110.8
2016-Aug-15 13:34N 55°27' W 006°31'1110.6
2016-Aug-15 12:33N 55°35' W 006°43'10 9.8
2016-Aug-15 11:33N 55°43' W 006°54'  

Dump ship's entire track history